sensor_id;sensor_type;location;lat;lon;timestamp;temperature;humidity
9209;DHT22;4639;48.862;9.188;2022-09-24T00:00:52;14.10;99.90
9209;DHT22;4639;48.862;9.188;2022-09-24T00:03:22;14.10;99.90
9209;DHT22;4639;48.862;9.188;2022-09-24T00:05:49;14.10;99.90
9209;DHT22;4639;48.862;9.188;2022-09-24T00:08:16;14.10;99.90
9209;DHT22;4639;48.862;9.188;2022-09-24T00:10:43;14.10;99.90
9209;DHT22;4639;48.862;9.188;2022-09-24T00:13:11;14.10;99.90
9209;DHT22;4639;48.862;9.188;2022-09-24T00:15:40;14.10;99.90
9209;DHT22;4639;48.862;9.188;2022-09-24T00:18:05;14.10;99.90
9209;DHT22;4639;48.862;9.188;2022-09-24T00:20:33;14.10;99.90
9209;DHT22;4639;48.862;9.188;2022-09-24T00:23:00;14.10;99.90
9209;DHT22;4639;48.862;9.188;2022-09-24T00:25:26;14.10;99.90
9209;DHT22;4639;48.862;9.188;2022-09-24T00:28:12;14.10;99.90
9209;DHT22;4639;48.862;9.188;2022-09-24T00:30:39;14.00;99.90
9209;DHT22;4639;48.862;9.188;2022-09-24T00:33:05;14.00;99.90
9209;DHT22;4639;48.862;9.188;2022-09-24T00:35:34;14.00;99.90
9209;DHT22;4639;48.862;9.188;2022-09-24T00:38:00;14.00;99.90
9209;DHT22;4639;48.862;9.188;2022-09-24T00:40:31;14.00;99.90
9209;DHT22;4639;48.862;9.188;2022-09-24T00:42:57;13.90;99.90
9209;DHT22;4639;48.862;9.188;2022-09-24T00:45:23;14.00;99.90
9209;DHT22;4639;48.862;9.188;2022-09-24T00:47:50;14.00;99.90
9209;DHT22;4639;48.862;9.188;2022-09-24T00:50:21;14.00;99.90
9209;DHT22;4639;48.862;9.188;2022-09-24T00:52:54;14.00;99.90
9209;DHT22;4639;48.862;9.188;2022-09-24T00:55:21;14.00;99.90
9209;DHT22;4639;48.862;9.188;2022-09-24T00:57:51;13.90;99.90
9209;DHT22;4639;48.862;9.188;2022-09-24T01:00:18;13.90;99.90
9209;DHT22;4639;48.862;9.188;2022-09-24T01:02:46;13.80;99.90
9209;DHT22;4639;48.862;9.188;2022-09-24T01:05:13;13.80;99.90
9209;DHT22;4639;48.862;9.188;2022-09-24T01:07:39;13.80;99.90
9209;DHT22;4639;48.862;9.188;2022-09-24T01:10:05;13.80;99.90
9209;DHT22;4639;48.862;9.188;2022-09-24T01:12:46;13.80;99.90
9209;DHT22;4639;48.862;9.188;2022-09-24T01:15:30;13.70;99.90
9209;DHT22;4639;48.862;9.188;2022-09-24T01:18:08;13.70;99.90
9209;DHT22;4639;48.862;9.188;2022-09-24T01:26:05;13.70;99.90
9209;DHT22;4639;48.862;9.188;2022-09-24T01:31:37;13.80;99.90
9209;DHT22;4639;48.862;9.188;2022-09-24T01:34:05;13.70;99.90
9209;DHT22;4639;48.862;9.188;2022-09-24T01:36:33;13.80;99.90
9209;DHT22;4639;48.862;9.188;2022-09-24T01:39:01;13.70;99.90
9209;DHT22;4639;48.862;9.188;2022-09-24T01:41:28;13.70;99.90
9209;DHT22;4639;48.862;9.188;2022-09-24T01:43:53;13.70;99.90
9209;DHT22;4639;48.862;9.188;2022-09-24T01:46:20;13.70;99.90
9209;DHT22;4639;48.862;9.188;2022-09-24T01:48:47;13.60;99.90
9209;DHT22;4639;48.862;9.188;2022-09-24T01:51:46;13.60;99.90
9209;DHT22;4639;48.862;9.188;2022-09-24T01:54:21;13.60;99.90
9209;DHT22;4639;48.862;9.188;2022-09-24T01:57:08;13.60;99.90
9209;DHT22;4639;48.862;9.188;2022-09-24T01:59:43;13.60;99.90
9209;DHT22;4639;48.862;9.188;2022-09-24T02:02:21;13.60;99.90
9209;DHT22;4639;48.862;9.188;2022-09-24T02:04:52;13.60;99.90
9209;DHT22;4639;48.862;9.188;2022-09-24T02:07:26;13.70;99.90
9209;DHT22;4639;48.862;9.188;2022-09-24T02:09:54;13.50;99.90
9209;DHT22;4639;48.862;9.188;2022-09-24T02:12:39;13.40;99.90
9209;DHT22;4639;48.862;9.188;2022-09-24T02:15:07;13.40;99.90
9209;DHT22;4639;48.862;9.188;2022-09-24T02:17:37;13.40;99.90
9209;DHT22;4639;48.862;9.188;2022-09-24T02:20:10;13.40;99.90
9209;DHT22;4639;48.862;9.188;2022-09-24T02:22:38;13.40;99.90
9209;DHT22;4639;48.862;9.188;2022-09-24T02:25:05;13.40;99.90
9209;DHT22;4639;48.862;9.188;2022-09-24T02:27:33;13.40;99.90
9209;DHT22;4639;48.862;9.188;2022-09-24T02:29:59;13.30;99.90
9209;DHT22;4639;48.862;9.188;2022-09-24T02:32:28;13.30;99.90
9209;DHT22;4639;48.862;9.188;2022-09-24T02:34:57;13.30;99.90
9209;DHT22;4639;48.862;9.188;2022-09-24T02:37:27;13.40;99.90
9209;DHT22;4639;48.862;9.188;2022-09-24T02:39:53;13.40;99.90
9209;DHT22;4639;48.862;9.188;2022-09-24T02:42:20;13.40;99.90
9209;DHT22;4639;48.862;9.188;2022-09-24T02:44:46;13.30;99.90
9209;DHT22;4639;48.862;9.188;2022-09-24T02:47:12;13.30;99.90
9209;DHT22;4639;48.862;9.188;2022-09-24T02:49:38;13.30;99.90
9209;DHT22;4639;48.862;9.188;2022-09-24T02:52:04;13.30;99.90
9209;DHT22;4639;48.862;9.188;2022-09-24T02:54:30;13.30;99.90
9209;DHT22;4639;48.862;9.188;2022-09-24T02:56:56;13.20;99.90
9209;DHT22;4639;48.862;9.188;2022-09-24T02:59:22;13.20;99.90
9209;DHT22;4639;48.862;9.188;2022-09-24T03:01:48;13.20;99.90
9209;DHT22;4639;48.862;9.188;2022-09-24T03:04:14;13.20;99.90
9209;DHT22;4639;48.862;9.188;2022-09-24T03:06:40;13.20;99.90
9209;DHT22;4639;48.862;9.188;2022-09-24T03:09:06;13.20;99.90
9209;DHT22;4639;48.862;9.188;2022-09-24T03:11:32;13.10;99.90
9209;DHT22;4639;48.862;9.188;2022-09-24T03:13:58;13.40;99.90
9209;DHT22;4639;48.862;9.188;2022-09-24T03:16:24;13.20;99.90
9209;DHT22;4639;48.862;9.188;2022-09-24T03:18:50;13.20;99.90
9209;DHT22;4639;48.862;9.188;2022-09-24T03:21:18;13.30;99.90
9209;DHT22;4639;48.862;9.188;2022-09-24T03:23:44;13.30;99.90
9209;DHT22;4639;48.862;9.188;2022-09-24T03:26:10;13.30;99.90
9209;DHT22;4639;48.862;9.188;2022-09-24T03:28:35;13.30;99.90
9209;DHT22;4639;48.862;9.188;2022-09-24T03:31:01;13.30;99.90
9209;DHT22;4639;48.862;9.188;2022-09-24T03:33:47;13.20;99.90
9209;DHT22;4639;48.862;9.188;2022-09-24T03:36:21;13.30;99.90
9209;DHT22;4639;48.862;9.188;2022-09-24T03:38:48;13.30;99.90
9209;DHT22;4639;48.862;9.188;2022-09-24T03:41:15;13.20;99.90
9209;DHT22;4639;48.862;9.188;2022-09-24T03:43:41;13.20;99.90
9209;DHT22;4639;48.862;9.188;2022-09-24T03:46:08;13.10;99.90
9209;DHT22;4639;48.862;9.188;2022-09-24T03:48:35;13.20;99.90
9209;DHT22;4639;48.862;9.188;2022-09-24T03:51:09;13.20;99.90
9209;DHT22;4639;48.862;9.188;2022-09-24T03:53:36;13.10;99.90
9209;DHT22;4639;48.862;9.188;2022-09-24T03:56:02;13.20;99.90
9209;DHT22;4639;48.862;9.188;2022-09-24T03:58:28;13.20;99.90
9209;DHT22;4639;48.862;9.188;2022-09-24T04:00:55;13.10;99.90
9209;DHT22;4639;48.862;9.188;2022-09-24T04:03:22;13.10;99.90
9209;DHT22;4639;48.862;9.188;2022-09-24T04:05:48;13.10;99.90
9209;DHT22;4639;48.862;9.188;2022-09-24T04:08:17;13.10;99.90
9209;DHT22;4639;48.862;9.188;2022-09-24T04:10:46;13.00;99.90
9209;DHT22;4639;48.862;9.188;2022-09-24T04:13:13;13.00;99.90
9209;DHT22;4639;48.862;9.188;2022-09-24T04:15:39;12.90;99.90
9209;DHT22;4639;48.862;9.188;2022-09-24T04:18:05;12.90;99.90
9209;DHT22;4639;48.862;9.188;2022-09-24T04:20:30;12.90;99.90
9209;DHT22;4639;48.862;9.188;2022-09-24T04:22:57;13.00;99.90
9209;DHT22;4639;48.862;9.188;2022-09-24T04:25:25;13.00;99.90
9209;DHT22;4639;48.862;9.188;2022-09-24T04:27:56;13.10;99.90
9209;DHT22;4639;48.862;9.188;2022-09-24T04:30:23;13.00;99.90
9209;DHT22;4639;48.862;9.188;2022-09-24T04:32:49;13.10;99.90
9209;DHT22;4639;48.862;9.188;2022-09-24T04:35:19;13.00;99.90
9209;DHT22;4639;48.862;9.188;2022-09-24T04:37:45;13.00;99.90
9209;DHT22;4639;48.862;9.188;2022-09-24T04:40:11;13.00;99.90
9209;DHT22;4639;48.862;9.188;2022-09-24T04:42:38;13.00;99.90
9209;DHT22;4639;48.862;9.188;2022-09-24T04:45:08;13.00;99.90
9209;DHT22;4639;48.862;9.188;2022-09-24T04:47:35;13.00;99.90
9209;DHT22;4639;48.862;9.188;2022-09-24T04:50:01;13.00;99.90
9209;DHT22;4639;48.862;9.188;2022-09-24T04:52:30;13.00;99.90
9209;DHT22;4639;48.862;9.188;2022-09-24T04:54:58;13.00;99.90
9209;DHT22;4639;48.862;9.188;2022-09-24T04:57:25;13.00;99.90
9209;DHT22;4639;48.862;9.188;2022-09-24T04:59:52;13.00;99.90
9209;DHT22;4639;48.862;9.188;2022-09-24T05:02:20;13.10;99.90
9209;DHT22;4639;48.862;9.188;2022-09-24T05:04:46;13.00;99.90
9209;DHT22;4639;48.862;9.188;2022-09-24T05:07:12;13.00;99.90
9209;DHT22;4639;48.862;9.188;2022-09-24T05:09:38;13.00;99.90
9209;DHT22;4639;48.862;9.188;2022-09-24T05:12:04;13.00;99.90
9209;DHT22;4639;48.862;9.188;2022-09-24T05:14:30;13.00;99.90
9209;DHT22;4639;48.862;9.188;2022-09-24T05:16:56;13.00;99.90
9209;DHT22;4639;48.862;9.188;2022-09-24T05:19:22;13.00;99.90
9209;DHT22;4639;48.862;9.188;2022-09-24T05:21:47;13.00;99.90
9209;DHT22;4639;48.862;9.188;2022-09-24T05:24:13;13.00;99.90
9209;DHT22;4639;48.862;9.188;2022-09-24T05:26:39;13.00;99.90
9209;DHT22;4639;48.862;9.188;2022-09-24T05:29:23;13.00;99.90
9209;DHT22;4639;48.862;9.188;2022-09-24T05:31:49;13.00;99.90
9209;DHT22;4639;48.862;9.188;2022-09-24T05:34:15;13.00;99.90
9209;DHT22;4639;48.862;9.188;2022-09-24T05:36:41;12.90;99.90
9209;DHT22;4639;48.862;9.188;2022-09-24T05:39:08;12.90;99.90
9209;DHT22;4639;48.862;9.188;2022-09-24T05:41:34;12.90;99.90
9209;DHT22;4639;48.862;9.188;2022-09-24T05:43:59;12.90;99.90
9209;DHT22;4639;48.862;9.188;2022-09-24T05:46:25;13.00;99.90
9209;DHT22;4639;48.862;9.188;2022-09-24T05:48:50;13.00;99.90
9209;DHT22;4639;48.862;9.188;2022-09-24T05:51:16;13.00;99.90
9209;DHT22;4639;48.862;9.188;2022-09-24T05:53:42;13.00;99.90
9209;DHT22;4639;48.862;9.188;2022-09-24T05:56:07;13.00;99.90
9209;DHT22;4639;48.862;9.188;2022-09-24T05:58:34;12.90;99.90
9209;DHT22;4639;48.862;9.188;2022-09-24T06:01:00;13.00;99.90
9209;DHT22;4639;48.862;9.188;2022-09-24T06:03:26;13.10;99.90
9209;DHT22;4639;48.862;9.188;2022-09-24T06:05:54;13.10;99.90
9209;DHT22;4639;48.862;9.188;2022-09-24T06:08:21;13.10;99.90
9209;DHT22;4639;48.862;9.188;2022-09-24T06:10:47;13.10;99.90
9209;DHT22;4639;48.862;9.188;2022-09-24T06:13:16;13.10;99.90
9209;DHT22;4639;48.862;9.188;2022-09-24T06:15:43;13.10;99.90
9209;DHT22;4639;48.862;9.188;2022-09-24T06:18:09;13.20;99.90
9209;DHT22;4639;48.862;9.188;2022-09-24T06:20:35;13.10;99.90
9209;DHT22;4639;48.862;9.188;2022-09-24T06:23:01;13.20;99.90
9209;DHT22;4639;48.862;9.188;2022-09-24T06:25:27;13.20;99.90
9209;DHT22;4639;48.862;9.188;2022-09-24T06:27:58;13.20;99.90
9209;DHT22;4639;48.862;9.188;2022-09-24T06:30:32;13.20;99.90
9209;DHT22;4639;48.862;9.188;2022-09-24T06:33:06;13.20;99.90
9209;DHT22;4639;48.862;9.188;2022-09-24T06:35:33;13.10;99.90
9209;DHT22;4639;48.862;9.188;2022-09-24T06:38:00;13.10;99.90
9209;DHT22;4639;48.862;9.188;2022-09-24T06:40:26;13.10;99.90
9209;DHT22;4639;48.862;9.188;2022-09-24T06:42:52;13.10;99.90
9209;DHT22;4639;48.862;9.188;2022-09-24T06:45:19;13.10;99.90
9209;DHT22;4639;48.862;9.188;2022-09-24T06:47:56;13.10;99.90
9209;DHT22;4639;48.862;9.188;2022-09-24T06:50:23;13.10;99.90
9209;DHT22;4639;48.862;9.188;2022-09-24T06:52:49;13.20;99.90
9209;DHT22;4639;48.862;9.188;2022-09-24T06:55:15;13.30;99.90
9209;DHT22;4639;48.862;9.188;2022-09-24T06:57:41;13.40;99.90
9209;DHT22;4639;48.862;9.188;2022-09-24T07:00:07;13.40;99.90
9209;DHT22;4639;48.862;9.188;2022-09-24T07:02:33;13.40;99.90
9209;DHT22;4639;48.862;9.188;2022-09-24T07:04:58;13.40;99.90
9209;DHT22;4639;48.862;9.188;2022-09-24T07:07:24;13.40;99.90
9209;DHT22;4639;48.862;9.188;2022-09-24T07:10:09;13.60;99.90
9209;DHT22;4639;48.862;9.188;2022-09-24T07:12:35;13.60;99.90
9209;DHT22;4639;48.862;9.188;2022-09-24T07:15:02;13.80;99.90
9209;DHT22;4639;48.862;9.188;2022-09-24T07:17:28;13.80;99.90
9209;DHT22;4639;48.862;9.188;2022-09-24T07:19:54;13.80;99.90
9209;DHT22;4639;48.862;9.188;2022-09-24T07:22:20;13.70;99.90
9209;DHT22;4639;48.862;9.188;2022-09-24T07:24:49;13.80;99.90
9209;DHT22;4639;48.862;9.188;2022-09-24T07:27:18;13.80;99.90
9209;DHT22;4639;48.862;9.188;2022-09-24T07:29:46;13.90;99.90
9209;DHT22;4639;48.862;9.188;2022-09-24T07:32:11;13.90;99.90
9209;DHT22;4639;48.862;9.188;2022-09-24T07:34:39;14.00;99.90
9209;DHT22;4639;48.862;9.188;2022-09-24T07:37:05;14.10;99.90
9209;DHT22;4639;48.862;9.188;2022-09-24T07:39:32;14.10;99.90
9209;DHT22;4639;48.862;9.188;2022-09-24T07:41:57;14.20;99.90
9209;DHT22;4639;48.862;9.188;2022-09-24T07:44:24;14.20;99.90
9209;DHT22;4639;48.862;9.188;2022-09-24T07:46:50;14.20;99.90
9209;DHT22;4639;48.862;9.188;2022-09-24T07:49:16;14.30;99.90
9209;DHT22;4639;48.862;9.188;2022-09-24T07:51:42;14.30;99.90
9209;DHT22;4639;48.862;9.188;2022-09-24T07:54:07;14.30;99.90
9209;DHT22;4639;48.862;9.188;2022-09-24T07:56:34;14.40;99.90
9209;DHT22;4639;48.862;9.188;2022-09-24T07:59:00;14.40;99.90
9209;DHT22;4639;48.862;9.188;2022-09-24T08:01:26;14.50;99.90
9209;DHT22;4639;48.862;9.188;2022-09-24T08:03:52;14.40;99.90
9209;DHT22;4639;48.862;9.188;2022-09-24T08:06:18;14.50;99.90
9209;DHT22;4639;48.862;9.188;2022-09-24T08:08:47;14.50;99.90
9209;DHT22;4639;48.862;9.188;2022-09-24T08:11:13;14.60;99.90
9209;DHT22;4639;48.862;9.188;2022-09-24T08:13:39;14.70;99.90
9209;DHT22;4639;48.862;9.188;2022-09-24T08:16:05;14.80;99.90
9209;DHT22;4639;48.862;9.188;2022-09-24T08:18:31;14.90;99.90
9209;DHT22;4639;48.862;9.188;2022-09-24T08:21:00;14.90;99.90
9209;DHT22;4639;48.862;9.188;2022-09-24T08:23:27;14.90;99.90
9209;DHT22;4639;48.862;9.188;2022-09-24T08:25:53;15.00;99.90
9209;DHT22;4639;48.862;9.188;2022-09-24T08:28:19;15.10;99.90
9209;DHT22;4639;48.862;9.188;2022-09-24T08:30:45;15.10;99.90
9209;DHT22;4639;48.862;9.188;2022-09-24T08:33:11;15.20;99.90
9209;DHT22;4639;48.862;9.188;2022-09-24T08:35:37;15.30;99.90
9209;DHT22;4639;48.862;9.188;2022-09-24T08:38:06;15.40;99.90
9209;DHT22;4639;48.862;9.188;2022-09-24T08:40:53;15.50;99.90
9209;DHT22;4639;48.862;9.188;2022-09-24T08:43:33;15.70;99.90
9209;DHT22;4639;48.862;9.188;2022-09-24T08:46:07;15.70;99.90
9209;DHT22;4639;48.862;9.188;2022-09-24T08:48:54;15.90;99.90
9209;DHT22;4639;48.862;9.188;2022-09-24T08:51:21;15.90;99.90
9209;DHT22;4639;48.862;9.188;2022-09-24T08:53:52;16.00;99.90
9209;DHT22;4639;48.862;9.188;2022-09-24T08:56:29;16.10;99.90
9209;DHT22;4639;48.862;9.188;2022-09-24T08:58:59;16.30;99.90
9209;DHT22;4639;48.862;9.188;2022-09-24T09:01:47;16.50;99.90
9209;DHT22;4639;48.862;9.188;2022-09-24T09:07:09;16.70;99.90
9209;DHT22;4639;48.862;9.188;2022-09-24T09:09:59;16.80;99.90
9209;DHT22;4639;48.862;9.188;2022-09-24T09:12:37;16.90;99.90
9209;DHT22;4639;48.862;9.188;2022-09-24T09:20:20;17.30;99.90
9209;DHT22;4639;48.862;9.188;2022-09-24T09:22:49;17.60;99.90
9209;DHT22;4639;48.862;9.188;2022-09-24T09:25:25;18.20;99.90
9209;DHT22;4639;48.862;9.188;2022-09-24T09:28:03;18.40;99.90
9209;DHT22;4639;48.862;9.188;2022-09-24T09:39:06;19.10;99.90
9209;DHT22;4639;48.862;9.188;2022-09-24T09:41:43;18.90;99.90
9209;DHT22;4639;48.862;9.188;2022-09-24T09:44:35;18.80;99.90
9209;DHT22;4639;48.862;9.188;2022-09-24T09:49:42;18.60;99.90
9209;DHT22;4639;48.862;9.188;2022-09-24T09:52:30;18.60;99.90
9209;DHT22;4639;48.862;9.188;2022-09-24T09:54:58;18.40;99.90
9209;DHT22;4639;48.862;9.188;2022-09-24T09:57:24;18.30;99.90
9209;DHT22;4639;48.862;9.188;2022-09-24T09:59:52;18.30;99.90
9209;DHT22;4639;48.862;9.188;2022-09-24T10:02:27;18.20;99.90
9209;DHT22;4639;48.862;9.188;2022-09-24T10:05:00;18.00;99.90
9209;DHT22;4639;48.862;9.188;2022-09-24T10:07:26;18.00;99.90
9209;DHT22;4639;48.862;9.188;2022-09-24T10:12:30;18.10;99.90
9209;DHT22;4639;48.862;9.188;2022-09-24T10:15:14;18.30;99.90
9209;DHT22;4639;48.862;9.188;2022-09-24T10:17:41;18.20;99.90
9209;DHT22;4639;48.862;9.188;2022-09-24T10:23:36;18.20;99.90
9209;DHT22;4639;48.862;9.188;2022-09-24T10:26:04;18.30;99.90
9209;DHT22;4639;48.862;9.188;2022-09-24T10:28:33;18.20;99.90
9209;DHT22;4639;48.862;9.188;2022-09-24T10:31:23;18.10;99.90
9209;DHT22;4639;48.862;9.188;2022-09-24T10:33:52;17.80;99.90
9209;DHT22;4639;48.862;9.188;2022-09-24T10:36:27;17.70;99.90
9209;DHT22;4639;48.862;9.188;2022-09-24T10:39:14;17.60;99.90
9209;DHT22;4639;48.862;9.188;2022-09-24T10:41:47;17.60;99.90
9209;DHT22;4639;48.862;9.188;2022-09-24T10:44:14;17.60;99.90
9209;DHT22;4639;48.862;9.188;2022-09-24T10:49:50;17.20;99.90
9209;DHT22;4639;48.862;9.188;2022-09-24T10:52:56;17.10;99.90
9209;DHT22;4639;48.862;9.188;2022-09-24T10:55:32;17.00;99.90
9209;DHT22;4639;48.862;9.188;2022-09-24T10:58:09;17.00;99.90
9209;DHT22;4639;48.862;9.188;2022-09-24T11:00:40;17.10;99.90
9209;DHT22;4639;48.862;9.188;2022-09-24T11:03:28;17.30;99.90
9209;DHT22;4639;48.862;9.188;2022-09-24T11:06:07;17.50;99.90
9209;DHT22;4639;48.862;9.188;2022-09-24T11:17:13;19.10;99.90
9209;DHT22;4639;48.862;9.188;2022-09-24T11:20:28;19.10;99.90
9209;DHT22;4639;48.862;9.188;2022-09-24T11:31:43;18.80;99.90
9209;DHT22;4639;48.862;9.188;2022-09-24T11:39:54;18.90;99.90
9209;DHT22;4639;48.862;9.188;2022-09-24T11:42:35;18.80;99.90
9209;DHT22;4639;48.862;9.188;2022-09-24T11:47:52;18.40;99.90
9209;DHT22;4639;48.862;9.188;2022-09-24T11:53:37;18.40;99.90
9209;DHT22;4639;48.862;9.188;2022-09-24T11:56:19;18.40;99.90
9209;DHT22;4639;48.862;9.188;2022-09-24T11:58:54;18.40;99.90
9209;DHT22;4639;48.862;9.188;2022-09-24T12:01:28;18.40;99.90
9209;DHT22;4639;48.862;9.188;2022-09-24T12:04:25;18.30;99.90
9209;DHT22;4639;48.862;9.188;2022-09-24T12:06:58;18.10;99.90
9209;DHT22;4639;48.862;9.188;2022-09-24T12:09:36;17.90;99.90
9209;DHT22;4639;48.862;9.188;2022-09-24T12:12:19;17.80;99.90
9209;DHT22;4639;48.862;9.188;2022-09-24T12:17:43;17.70;99.90
9209;DHT22;4639;48.862;9.188;2022-09-24T12:20:30;17.70;99.90
9209;DHT22;4639;48.862;9.188;2022-09-24T12:23:01;17.70;99.90
9209;DHT22;4639;48.862;9.188;2022-09-24T12:25:32;17.70;99.90
9209;DHT22;4639;48.862;9.188;2022-09-24T12:28:03;17.80;99.90
9209;DHT22;4639;48.862;9.188;2022-09-24T12:30:43;17.80;99.90
9209;DHT22;4639;48.862;9.188;2022-09-24T12:34:07;17.60;99.90
9209;DHT22;4639;48.862;9.188;2022-09-24T12:39:22;17.70;99.90
9209;DHT22;4639;48.862;9.188;2022-09-24T12:41:55;17.70;99.90
9209;DHT22;4639;48.862;9.188;2022-09-24T12:44:36;17.60;99.90
9209;DHT22;4639;48.862;9.188;2022-09-24T12:47:02;17.60;99.90
9209;DHT22;4639;48.862;9.188;2022-09-24T12:49:32;17.60;99.90
9209;DHT22;4639;48.862;9.188;2022-09-24T12:52:03;17.60;99.90
9209;DHT22;4639;48.862;9.188;2022-09-24T12:57:11;17.60;99.90
9209;DHT22;4639;48.862;9.188;2022-09-24T12:59:50;17.60;99.90
9209;DHT22;4639;48.862;9.188;2022-09-24T13:02:21;17.60;99.90
9209;DHT22;4639;48.862;9.188;2022-09-24T13:05:11;17.70;99.90
9209;DHT22;4639;48.862;9.188;2022-09-24T13:07:41;17.70;99.90
9209;DHT22;4639;48.862;9.188;2022-09-24T13:12:39;17.70;99.90
9209;DHT22;4639;48.862;9.188;2022-09-24T13:15:07;17.70;99.90
9209;DHT22;4639;48.862;9.188;2022-09-24T13:17:43;17.80;99.90
9209;DHT22;4639;48.862;9.188;2022-09-24T13:20:23;17.80;99.90
9209;DHT22;4639;48.862;9.188;2022-09-24T13:22:57;17.80;99.90
9209;DHT22;4639;48.862;9.188;2022-09-24T13:25:26;17.90;99.90
9209;DHT22;4639;48.862;9.188;2022-09-24T13:28:02;17.80;99.90
9209;DHT22;4639;48.862;9.188;2022-09-24T13:44:12;17.80;99.90
9209;DHT22;4639;48.862;9.188;2022-09-24T13:46:43;17.80;99.90
9209;DHT22;4639;48.862;9.188;2022-09-24T13:49:13;17.80;99.90
9209;DHT22;4639;48.862;9.188;2022-09-24T13:51:44;17.90;99.90
9209;DHT22;4639;48.862;9.188;2022-09-24T13:54:21;17.90;99.90
9209;DHT22;4639;48.862;9.188;2022-09-24T13:57:11;17.90;99.90
9209;DHT22;4639;48.862;9.188;2022-09-24T13:59:37;17.90;99.90
9209;DHT22;4639;48.862;9.188;2022-09-24T14:02:25;17.80;99.90
9209;DHT22;4639;48.862;9.188;2022-09-24T14:04:56;17.70;99.90
9209;DHT22;4639;48.862;9.188;2022-09-24T14:07:24;17.70;99.90
9209;DHT22;4639;48.862;9.188;2022-09-24T14:10:04;17.70;99.90
9209;DHT22;4639;48.862;9.188;2022-09-24T14:12:30;17.70;99.90
9209;DHT22;4639;48.862;9.188;2022-09-24T14:14:56;17.60;99.90
9209;DHT22;4639;48.862;9.188;2022-09-24T14:17:23;17.60;99.90
9209;DHT22;4639;48.862;9.188;2022-09-24T14:19:53;17.70;99.90
9209;DHT22;4639;48.862;9.188;2022-09-24T14:22:22;17.80;99.90
9209;DHT22;4639;48.862;9.188;2022-09-24T14:25:07;17.80;99.90
9209;DHT22;4639;48.862;9.188;2022-09-24T14:27:39;17.70;99.90
9209;DHT22;4639;48.862;9.188;2022-09-24T14:30:14;17.60;99.90
9209;DHT22;4639;48.862;9.188;2022-09-24T14:32:41;17.60;99.90
9209;DHT22;4639;48.862;9.188;2022-09-24T14:35:17;17.70;99.90
9209;DHT22;4639;48.862;9.188;2022-09-24T14:37:53;17.80;99.90
9209;DHT22;4639;48.862;9.188;2022-09-24T14:40:21;17.80;99.90
9209;DHT22;4639;48.862;9.188;2022-09-24T14:42:50;17.80;99.90
9209;DHT22;4639;48.862;9.188;2022-09-24T14:45:20;17.80;99.90
9209;DHT22;4639;48.862;9.188;2022-09-24T14:47:46;17.80;99.90
9209;DHT22;4639;48.862;9.188;2022-09-24T14:50:36;17.80;99.90
9209;DHT22;4639;48.862;9.188;2022-09-24T14:53:11;17.90;99.90
9209;DHT22;4639;48.862;9.188;2022-09-24T14:55:40;18.00;99.90
9209;DHT22;4639;48.862;9.188;2022-09-24T15:00:52;17.80;99.90
9209;DHT22;4639;48.862;9.188;2022-09-24T15:06:05;17.80;99.90
9209;DHT22;4639;48.862;9.188;2022-09-24T15:08:31;17.80;99.90
9209;DHT22;4639;48.862;9.188;2022-09-24T15:11:00;17.80;99.90
9209;DHT22;4639;48.862;9.188;2022-09-24T15:13:34;17.70;99.90
9209;DHT22;4639;48.862;9.188;2022-09-24T15:16:17;17.70;99.90
9209;DHT22;4639;48.862;9.188;2022-09-24T15:18:43;17.70;99.90
9209;DHT22;4639;48.862;9.188;2022-09-24T15:21:09;17.70;99.90
9209;DHT22;4639;48.862;9.188;2022-09-24T15:23:37;17.70;99.90
9209;DHT22;4639;48.862;9.188;2022-09-24T15:26:02;17.80;99.90
9209;DHT22;4639;48.862;9.188;2022-09-24T15:28:28;18.00;99.90
9209;DHT22;4639;48.862;9.188;2022-09-24T15:30:55;18.30;99.90
9209;DHT22;4639;48.862;9.188;2022-09-24T15:33:21;18.50;99.90
9209;DHT22;4639;48.862;9.188;2022-09-24T15:35:46;18.70;99.90
9209;DHT22;4639;48.862;9.188;2022-09-24T15:38:15;18.90;99.90
9209;DHT22;4639;48.862;9.188;2022-09-24T15:40:42;19.20;99.90
9209;DHT22;4639;48.862;9.188;2022-09-24T15:43:21;19.50;99.90
9209;DHT22;4639;48.862;9.188;2022-09-24T15:45:47;19.70;99.90
9209;DHT22;4639;48.862;9.188;2022-09-24T15:48:13;19.90;99.90
9209;DHT22;4639;48.862;9.188;2022-09-24T15:50:39;19.70;99.90
9209;DHT22;4639;48.862;9.188;2022-09-24T15:53:05;19.50;99.90
9209;DHT22;4639;48.862;9.188;2022-09-24T15:55:33;19.40;99.90
9209;DHT22;4639;48.862;9.188;2022-09-24T15:58:00;19.20;99.90
9209;DHT22;4639;48.862;9.188;2022-09-24T16:00:26;19.10;99.90
9209;DHT22;4639;48.862;9.188;2022-09-24T16:02:54;19.00;99.90
9209;DHT22;4639;48.862;9.188;2022-09-24T16:05:21;19.00;99.90
9209;DHT22;4639;48.862;9.188;2022-09-24T16:07:46;18.90;99.90
9209;DHT22;4639;48.862;9.188;2022-09-24T16:10:13;18.80;99.90
9209;DHT22;4639;48.862;9.188;2022-09-24T16:12:40;18.70;99.90
9209;DHT22;4639;48.862;9.188;2022-09-24T16:15:06;18.50;99.90
9209;DHT22;4639;48.862;9.188;2022-09-24T16:17:32;18.30;99.90
9209;DHT22;4639;48.862;9.188;2022-09-24T16:19:58;18.20;99.90
9209;DHT22;4639;48.862;9.188;2022-09-24T16:22:23;18.20;99.90
9209;DHT22;4639;48.862;9.188;2022-09-24T16:24:49;18.10;99.90
9209;DHT22;4639;48.862;9.188;2022-09-24T16:27:14;18.10;99.90
9209;DHT22;4639;48.862;9.188;2022-09-24T16:29:40;18.00;99.90
9209;DHT22;4639;48.862;9.188;2022-09-24T16:32:05;18.00;99.90
9209;DHT22;4639;48.862;9.188;2022-09-24T16:34:31;18.00;99.90
9209;DHT22;4639;48.862;9.188;2022-09-24T16:36:57;18.00;99.90
9209;DHT22;4639;48.862;9.188;2022-09-24T16:39:23;17.90;99.90
9209;DHT22;4639;48.862;9.188;2022-09-24T16:41:49;17.90;99.90
9209;DHT22;4639;48.862;9.188;2022-09-24T16:44:15;17.90;99.90
9209;DHT22;4639;48.862;9.188;2022-09-24T16:46:42;17.80;99.90
9209;DHT22;4639;48.862;9.188;2022-09-24T16:49:08;17.80;99.90
9209;DHT22;4639;48.862;9.188;2022-09-24T16:51:34;17.70;99.90
9209;DHT22;4639;48.862;9.188;2022-09-24T16:53:59;17.70;99.90
9209;DHT22;4639;48.862;9.188;2022-09-24T16:56:25;17.80;99.90
9209;DHT22;4639;48.862;9.188;2022-09-24T16:58:50;17.70;99.90
9209;DHT22;4639;48.862;9.188;2022-09-24T17:01:19;17.60;99.90
9209;DHT22;4639;48.862;9.188;2022-09-24T17:03:52;17.50;99.90
9209;DHT22;4639;48.862;9.188;2022-09-24T17:06:24;17.50;99.90
9209;DHT22;4639;48.862;9.188;2022-09-24T17:08:50;17.40;99.90
9209;DHT22;4639;48.862;9.188;2022-09-24T17:11:36;17.30;99.90
9209;DHT22;4639;48.862;9.188;2022-09-24T17:14:04;17.20;99.90
9209;DHT22;4639;48.862;9.188;2022-09-24T17:16:32;17.10;99.90
9209;DHT22;4639;48.862;9.188;2022-09-24T17:18:58;17.10;99.90
9209;DHT22;4639;48.862;9.188;2022-09-24T17:21:23;17.00;99.90
9209;DHT22;4639;48.862;9.188;2022-09-24T17:23:49;17.00;99.90
9209;DHT22;4639;48.862;9.188;2022-09-24T17:26:18;16.90;99.90
9209;DHT22;4639;48.862;9.188;2022-09-24T17:28:45;16.80;99.90
9209;DHT22;4639;48.862;9.188;2022-09-24T17:31:15;16.70;99.90
9209;DHT22;4639;48.862;9.188;2022-09-24T17:33:42;16.70;99.90
9209;DHT22;4639;48.862;9.188;2022-09-24T17:36:09;16.70;99.90
9209;DHT22;4639;48.862;9.188;2022-09-24T17:38:35;16.70;99.90
9209;DHT22;4639;48.862;9.188;2022-09-24T17:41:12;16.70;99.90
9209;DHT22;4639;48.862;9.188;2022-09-24T17:43:38;16.70;99.90
9209;DHT22;4639;48.862;9.188;2022-09-24T17:46:13;16.80;99.90
9209;DHT22;4639;48.862;9.188;2022-09-24T17:48:40;16.70;99.90
9209;DHT22;4639;48.862;9.188;2022-09-24T17:51:10;16.70;99.90
9209;DHT22;4639;48.862;9.188;2022-09-24T17:53:36;16.60;99.90
9209;DHT22;4639;48.862;9.188;2022-09-24T17:56:04;16.60;99.90